sensor_id;sensor_type;location;lat;lon;timestamp;P1;durP1;ratioP1;P2;durP2;ratioP2
46282;SDS011;32017;43.700;11.820;2022-12-20T00:01:50;52.80;;;40.20;;
46282;SDS011;32017;43.700;11.820;2022-12-20T00:04:10;53.80;;;41.08;;
46282;SDS011;32017;43.700;11.820;2022-12-20T00:06:30;49.13;;;36.45;;
46282;SDS011;32017;43.700;11.820;2022-12-20T00:08:56;42.63;;;34.20;;
46282;SDS011;32017;43.700;11.820;2022-12-20T00:11:18;38.75;;;33.05;;
46282;SDS011;32017;43.700;11.820;2022-12-20T00:13:38;42.28;;;34.30;;
46282;SDS011;32017;43.700;11.820;2022-12-20T00:16:10;30.65;;;27.38;;
46282;SDS011;32017;43.700;11.820;2022-12-20T00:18:31;33.50;;;29.95;;
46282;SDS011;32017;43.700;11.820;2022-12-20T00:20:56;41.15;;;34.63;;
46282;SDS011;32017;43.700;11.820;2022-12-20T00:23:20;54.33;;;38.40;;
46282;SDS011;32017;43.700;11.820;2022-12-20T00:25:41;55.55;;;41.75;;
46282;SDS011;32017;43.700;11.820;2022-12-20T00:28:00;48.97;;;38.25;;
46282;SDS011;32017;43.700;11.820;2022-12-20T00:30:22;50.78;;;39.17;;
46282;SDS011;32017;43.700;11.820;2022-12-20T00:32:42;40.67;;;34.03;;
46282;SDS011;32017;43.700;11.820;2022-12-20T00:35:03;40.65;;;33.25;;
46282;SDS011;32017;43.700;11.820;2022-12-20T00:37:23;40.50;;;33.78;;
46282;SDS011;32017;43.700;11.820;2022-12-20T00:39:43;39.47;;;31.83;;
46282;SDS011;32017;43.700;11.820;2022-12-20T00:42:03;45.80;;;35.42;;
46282;SDS011;32017;43.700;11.820;2022-12-20T00:44:24;45.15;;;36.33;;
46282;SDS011;32017;43.700;11.820;2022-12-20T00:46:43;37.70;;;32.92;;
46282;SDS011;32017;43.700;11.820;2022-12-20T00:49:03;42.25;;;35.33;;
46282;SDS011;32017;43.700;11.820;2022-12-20T00:51:26;35.95;;;30.45;;
46282;SDS011;32017;43.700;11.820;2022-12-20T00:53:47;41.10;;;32.50;;
46282;SDS011;32017;43.700;11.820;2022-12-20T00:56:08;37.85;;;32.95;;
46282;SDS011;32017;43.700;11.820;2022-12-20T00:58:28;41.67;;;33.78;;
46282;SDS011;32017;43.700;11.820;2022-12-20T01:00:50;44.30;;;33.67;;
46282;SDS011;32017;43.700;11.820;2022-12-20T01:03:15;35.08;;;29.98;;
46282;SDS011;32017;43.700;11.820;2022-12-20T01:05:35;35.05;;;29.52;;
46282;SDS011;32017;43.700;11.820;2022-12-20T01:07:56;38.88;;;33.20;;
46282;SDS011;32017;43.700;11.820;2022-12-20T01:10:16;35.67;;;30.33;;
46282;SDS011;32017;43.700;11.820;2022-12-20T01:12:36;41.92;;;30.05;;
46282;SDS011;32017;43.700;11.820;2022-12-20T01:14:55;48.00;;;32.47;;
46282;SDS011;32017;43.700;11.820;2022-12-20T01:17:16;40.55;;;33.63;;
46282;SDS011;32017;43.700;11.820;2022-12-20T01:19:36;40.45;;;33.10;;
46282;SDS011;32017;43.700;11.820;2022-12-20T01:21:56;41.95;;;32.63;;
46282;SDS011;32017;43.700;11.820;2022-12-20T01:24:16;41.88;;;35.50;;
46282;SDS011;32017;43.700;11.820;2022-12-20T01:26:38;52.58;;;36.78;;
46282;SDS011;32017;43.700;11.820;2022-12-20T01:28:58;43.57;;;33.80;;
46282;SDS011;32017;43.700;11.820;2022-12-20T01:31:19;34.67;;;31.00;;
46282;SDS011;32017;43.700;11.820;2022-12-20T01:33:39;36.45;;;30.92;;
46282;SDS011;32017;43.700;11.820;2022-12-20T01:36:01;37.70;;;30.63;;
46282;SDS011;32017;43.700;11.820;2022-12-20T01:38:27;39.53;;;29.52;;
46282;SDS011;32017;43.700;11.820;2022-12-20T01:40:47;30.60;;;26.83;;
46282;SDS011;32017;43.700;11.820;2022-12-20T01:43:08;34.35;;;27.85;;
46282;SDS011;32017;43.700;11.820;2022-12-20T01:45:31;35.13;;;29.83;;
46282;SDS011;32017;43.700;11.820;2022-12-20T01:47:51;34.35;;;29.33;;
46282;SDS011;32017;43.700;11.820;2022-12-20T01:50:11;37.67;;;29.52;;
46282;SDS011;32017;43.700;11.820;2022-12-20T01:52:32;35.08;;;26.67;;
46282;SDS011;32017;43.700;11.820;2022-12-20T01:54:56;34.08;;;28.98;;
46282;SDS011;32017;43.700;11.820;2022-12-20T01:57:30;36.33;;;29.58;;
46282;SDS011;32017;43.700;11.820;2022-12-20T01:59:58;31.00;;;27.70;;
46282;SDS011;32017;43.700;11.820;2022-12-20T02:02:18;32.42;;;27.48;;
46282;SDS011;32017;43.700;11.820;2022-12-20T02:04:38;30.15;;;27.15;;
46282;SDS011;32017;43.700;11.820;2022-12-20T02:06:58;34.65;;;27.92;;
46282;SDS011;32017;43.700;11.820;2022-12-20T02:09:19;30.25;;;25.60;;
46282;SDS011;32017;43.700;11.820;2022-12-20T02:30:44;34.85;;;29.20;;
46282;SDS011;32017;43.700;11.820;2022-12-20T02:33:07;33.90;;;26.98;;
46282;SDS011;32017;43.700;11.820;2022-12-20T02:35:32;36.75;;;29.92;;
46282;SDS011;32017;43.700;11.820;2022-12-20T02:37:55;34.17;;;29.17;;
46282;SDS011;32017;43.700;11.820;2022-12-20T02:40:18;32.25;;;27.80;;
46282;SDS011;32017;43.700;11.820;2022-12-20T02:42:42;31.20;;;27.92;;
46282;SDS011;32017;43.700;11.820;2022-12-20T02:45:07;35.92;;;31.02;;
46282;SDS011;32017;43.700;11.820;2022-12-20T02:47:54;31.23;;;27.75;;
46282;SDS011;32017;43.700;11.820;2022-12-20T02:50:37;35.60;;;29.42;;
46282;SDS011;32017;43.700;11.820;2022-12-20T02:53:03;40.38;;;27.73;;
46282;SDS011;32017;43.700;11.820;2022-12-20T02:58:37;31.00;;;27.15;;
46282;SDS011;32017;43.700;11.820;2022-12-20T03:01:09;34.45;;;26.80;;
46282;SDS011;32017;43.700;11.820;2022-12-20T03:03:34;29.00;;;26.25;;
46282;SDS011;32017;43.700;11.820;2022-12-20T03:05:55;29.90;;;25.58;;
46282;SDS011;32017;43.700;11.820;2022-12-20T03:08:15;32.08;;;26.83;;
46282;SDS011;32017;43.700;11.820;2022-12-20T03:10:36;28.70;;;24.95;;
46282;SDS011;32017;43.700;11.820;2022-12-20T03:12:56;29.90;;;25.23;;
46282;SDS011;32017;43.700;11.820;2022-12-20T03:15:17;26.63;;;22.35;;
46282;SDS011;32017;43.700;11.820;2022-12-20T03:17:36;27.63;;;21.67;;
46282;SDS011;32017;43.700;11.820;2022-12-20T03:19:56;25.23;;;22.70;;
46282;SDS011;32017;43.700;11.820;2022-12-20T03:22:16;24.30;;;22.27;;
46282;SDS011;32017;43.700;11.820;2022-12-20T03:24:36;27.45;;;24.05;;
46282;SDS011;32017;43.700;11.820;2022-12-20T03:26:56;26.50;;;23.83;;
46282;SDS011;32017;43.700;11.820;2022-12-20T03:29:16;27.83;;;24.85;;
46282;SDS011;32017;43.700;11.820;2022-12-20T03:31:36;27.77;;;25.05;;
46282;SDS011;32017;43.700;11.820;2022-12-20T03:33:57;29.13;;;26.02;;
46282;SDS011;32017;43.700;11.820;2022-12-20T03:36:17;33.30;;;27.15;;
46282;SDS011;32017;43.700;11.820;2022-12-20T03:38:41;28.75;;;25.65;;
46282;SDS011;32017;43.700;11.820;2022-12-20T03:41:01;28.65;;;24.88;;
46282;SDS011;32017;43.700;11.820;2022-12-20T03:43:21;29.95;;;25.88;;
46282;SDS011;32017;43.700;11.820;2022-12-20T03:45:41;27.38;;;24.55;;
46282;SDS011;32017;43.700;11.820;2022-12-20T03:48:01;28.42;;;25.42;;
46282;SDS011;32017;43.700;11.820;2022-12-20T03:50:21;27.00;;;23.83;;
46282;SDS011;32017;43.700;11.820;2022-12-20T03:52:40;27.38;;;24.08;;
46282;SDS011;32017;43.700;11.820;2022-12-20T03:55:00;26.80;;;23.42;;
46282;SDS011;32017;43.700;11.820;2022-12-20T03:57:21;26.20;;;23.55;;
46282;SDS011;32017;43.700;11.820;2022-12-20T03:59:41;26.20;;;23.55;;
46282;SDS011;32017;43.700;11.820;2022-12-20T04:02:02;28.48;;;25.08;;
46282;SDS011;32017;43.700;11.820;2022-12-20T04:04:22;28.27;;;22.55;;
46282;SDS011;32017;43.700;11.820;2022-12-20T04:06:42;27.40;;;24.58;;
46282;SDS011;32017;43.700;11.820;2022-12-20T04:09:02;30.00;;;25.40;;
46282;SDS011;32017;43.700;11.820;2022-12-20T04:11:22;34.40;;;26.90;;
46282;SDS011;32017;43.700;11.820;2022-12-20T04:13:46;27.75;;;24.85;;
46282;SDS011;32017;43.700;11.820;2022-12-20T04:16:11;33.95;;;25.13;;
46282;SDS011;32017;43.700;11.820;2022-12-20T04:18:32;34.22;;;26.73;;
46282;SDS011;32017;43.700;11.820;2022-12-20T04:20:52;33.25;;;26.80;;
46282;SDS011;32017;43.700;11.820;2022-12-20T04:23:12;30.25;;;25.05;;
46282;SDS011;32017;43.700;11.820;2022-12-20T04:25:32;28.08;;;23.95;;
46282;SDS011;32017;43.700;11.820;2022-12-20T04:27:52;28.65;;;25.77;;
46282;SDS011;32017;43.700;11.820;2022-12-20T04:30:12;30.20;;;27.10;;
46282;SDS011;32017;43.700;11.820;2022-12-20T04:32:32;28.30;;;23.88;;
46282;SDS011;32017;43.700;11.820;2022-12-20T04:34:51;26.80;;;24.00;;
46282;SDS011;32017;43.700;11.820;2022-12-20T04:37:11;28.95;;;23.38;;
46282;SDS011;32017;43.700;11.820;2022-12-20T04:39:31;29.55;;;26.58;;
46282;SDS011;32017;43.700;11.820;2022-12-20T04:41:50;29.27;;;26.15;;
46282;SDS011;32017;43.700;11.820;2022-12-20T04:44:11;29.10;;;26.17;;
46282;SDS011;32017;43.700;11.820;2022-12-20T04:46:30;27.55;;;23.98;;
46282;SDS011;32017;43.700;11.820;2022-12-20T04:48:51;31.10;;;24.70;;
46282;SDS011;32017;43.700;11.820;2022-12-20T04:51:18;30.42;;;25.77;;
46282;SDS011;32017;43.700;11.820;2022-12-20T04:53:38;31.15;;;26.77;;
46282;SDS011;32017;43.700;11.820;2022-12-20T04:56:07;28.08;;;25.35;;
46282;SDS011;32017;43.700;11.820;2022-12-20T04:58:28;26.80;;;24.08;;
46282;SDS011;32017;43.700;11.820;2022-12-20T05:00:48;27.35;;;24.83;;
46282;SDS011;32017;43.700;11.820;2022-12-20T05:03:10;32.45;;;27.20;;
46282;SDS011;32017;43.700;11.820;2022-12-20T05:05:30;29.35;;;25.38;;
46282;SDS011;32017;43.700;11.820;2022-12-20T05:07:51;28.88;;;25.85;;
46282;SDS011;32017;43.700;11.820;2022-12-20T05:12:59;27.58;;;24.77;;
46282;SDS011;32017;43.700;11.820;2022-12-20T05:15:28;26.27;;;23.65;;
46282;SDS011;32017;43.700;11.820;2022-12-20T05:17:48;29.33;;;25.83;;
46282;SDS011;32017;43.700;11.820;2022-12-20T05:20:08;27.77;;;25.10;;
46282;SDS011;32017;43.700;11.820;2022-12-20T05:22:28;30.52;;;24.67;;
46282;SDS011;32017;43.700;11.820;2022-12-20T05:25:08;27.23;;;24.27;;
46282;SDS011;32017;43.700;11.820;2022-12-20T05:27:47;27.77;;;24.88;;
46282;SDS011;32017;43.700;11.820;2022-12-20T05:30:07;27.85;;;24.52;;
46282;SDS011;32017;43.700;11.820;2022-12-20T05:32:27;28.85;;;25.83;;
46282;SDS011;32017;43.700;11.820;2022-12-20T05:34:46;33.15;;;28.05;;
46282;SDS011;32017;43.700;11.820;2022-12-20T05:37:06;33.53;;;28.55;;
46282;SDS011;32017;43.700;11.820;2022-12-20T05:39:26;32.70;;;28.48;;
46282;SDS011;32017;43.700;11.820;2022-12-20T05:41:46;32.88;;;29.42;;
46282;SDS011;32017;43.700;11.820;2022-12-20T05:44:06;27.00;;;24.23;;
46282;SDS011;32017;43.700;11.820;2022-12-20T05:46:26;30.90;;;27.63;;
46282;SDS011;32017;43.700;11.820;2022-12-20T05:48:46;28.85;;;26.05;;
46282;SDS011;32017;43.700;11.820;2022-12-20T05:51:05;29.15;;;26.05;;
46282;SDS011;32017;43.700;11.820;2022-12-20T05:53:25;28.38;;;25.38;;
46282;SDS011;32017;43.700;11.820;2022-12-20T05:55:47;26.88;;;23.67;;
46282;SDS011;32017;43.700;11.820;2022-12-20T05:58:08;33.35;;;28.00;;
46282;SDS011;32017;43.700;11.820;2022-12-20T06:00:31;32.88;;;28.30;;
46282;SDS011;32017;43.700;11.820;2022-12-20T06:02:51;31.02;;;27.70;;
46282;SDS011;32017;43.700;11.820;2022-12-20T06:05:11;30.70;;;26.52;;
46282;SDS011;32017;43.700;11.820;2022-12-20T06:07:31;33.47;;;28.27;;
46282;SDS011;32017;43.700;11.820;2022-12-20T06:09:51;27.60;;;24.70;;
46282;SDS011;32017;43.700;11.820;2022-12-20T06:12:11;31.95;;;26.55;;
46282;SDS011;32017;43.700;11.820;2022-12-20T06:14:32;28.95;;;24.88;;
46282;SDS011;32017;43.700;11.820;2022-12-20T06:16:52;28.40;;;25.45;;
46282;SDS011;32017;43.700;11.820;2022-12-20T06:19:12;28.35;;;25.20;;
46282;SDS011;32017;43.700;11.820;2022-12-20T06:21:40;31.55;;;26.40;;
46282;SDS011;32017;43.700;11.820;2022-12-20T06:24:00;27.48;;;24.40;;
46282;SDS011;32017;43.700;11.820;2022-12-20T06:26:20;26.88;;;24.13;;
46282;SDS011;32017;43.700;11.820;2022-12-20T06:28:43;27.13;;;24.38;;
46282;SDS011;32017;43.700;11.820;2022-12-20T06:31:03;30.65;;;25.15;;
46282;SDS011;32017;43.700;11.820;2022-12-20T06:33:23;28.95;;;26.17;;
46282;SDS011;32017;43.700;11.820;2022-12-20T06:35:43;30.15;;;27.15;;
46282;SDS011;32017;43.700;11.820;2022-12-20T06:38:03;29.55;;;25.95;;
46282;SDS011;32017;43.700;11.820;2022-12-20T06:40:23;34.97;;;28.38;;
46282;SDS011;32017;43.700;11.820;2022-12-20T06:42:43;42.47;;;33.67;;
46282;SDS011;32017;43.700;11.820;2022-12-20T06:45:03;35.13;;;29.42;;
46282;SDS011;32017;43.700;11.820;2022-12-20T06:47:23;35.72;;;30.80;;
46282;SDS011;32017;43.700;11.820;2022-12-20T06:49:43;32.05;;;28.75;;
46282;SDS011;32017;43.700;11.820;2022-12-20T06:52:03;31.98;;;28.77;;
46282;SDS011;32017;43.700;11.820;2022-12-20T06:54:23;32.55;;;29.40;;
46282;SDS011;32017;43.700;11.820;2022-12-20T06:56:43;33.58;;;30.08;;
46282;SDS011;32017;43.700;11.820;2022-12-20T06:59:03;32.08;;;28.70;;
46282;SDS011;32017;43.700;11.820;2022-12-20T07:01:24;39.22;;;32.83;;
46282;SDS011;32017;43.700;11.820;2022-12-20T07:03:44;33.95;;;30.00;;
46282;SDS011;32017;43.700;11.820;2022-12-20T07:06:05;31.40;;;28.02;;
46282;SDS011;32017;43.700;11.820;2022-12-20T07:08:25;31.15;;;27.88;;
46282;SDS011;32017;43.700;11.820;2022-12-20T07:10:44;33.65;;;30.42;;
46282;SDS011;32017;43.700;11.820;2022-12-20T07:13:05;32.72;;;29.13;;
46282;SDS011;32017;43.700;11.820;2022-12-20T07:15:24;40.15;;;31.50;;
46282;SDS011;32017;43.700;11.820;2022-12-20T07:17:45;48.65;;;34.15;;
46282;SDS011;32017;43.700;11.820;2022-12-20T07:20:04;41.70;;;33.83;;
46282;SDS011;32017;43.700;11.820;2022-12-20T07:22:32;42.65;;;33.35;;
46282;SDS011;32017;43.700;11.820;2022-12-20T07:24:53;42.55;;;33.88;;
46282;SDS011;32017;43.700;11.820;2022-12-20T07:27:12;33.97;;;30.27;;
46282;SDS011;32017;43.700;11.820;2022-12-20T07:29:32;37.17;;;30.25;;
46282;SDS011;32017;43.700;11.820;2022-12-20T07:31:53;35.13;;;29.80;;
46282;SDS011;32017;43.700;11.820;2022-12-20T07:34:13;34.78;;;29.42;;
46282;SDS011;32017;43.700;11.820;2022-12-20T07:36:33;32.65;;;28.15;;
46282;SDS011;32017;43.700;11.820;2022-12-20T07:38:53;32.33;;;29.05;;
46282;SDS011;32017;43.700;11.820;2022-12-20T07:41:14;34.72;;;30.88;;
46282;SDS011;32017;43.700;11.820;2022-12-20T07:43:36;33.30;;;29.42;;
46282;SDS011;32017;43.700;11.820;2022-12-20T07:45:56;31.95;;;28.67;;
46282;SDS011;32017;43.700;11.820;2022-12-20T07:48:16;32.95;;;29.40;;
46282;SDS011;32017;43.700;11.820;2022-12-20T07:50:40;35.20;;;31.75;;
46282;SDS011;32017;43.700;11.820;2022-12-20T07:53:00;36.80;;;32.88;;
46282;SDS011;32017;43.700;11.820;2022-12-20T07:57:48;39.35;;;35.08;;
46282;SDS011;32017;43.700;11.820;2022-12-20T08:00:14;48.03;;;38.42;;
46282;SDS011;32017;43.700;11.820;2022-12-20T08:02:36;47.90;;;42.13;;
46282;SDS011;32017;43.700;11.820;2022-12-20T08:05:03;38.65;;;33.47;;
46282;SDS011;32017;43.700;11.820;2022-12-20T08:07:26;42.63;;;36.50;;
46282;SDS011;32017;43.700;11.820;2022-12-20T08:09:48;37.95;;;32.95;;
46282;SDS011;32017;43.700;11.820;2022-12-20T08:12:09;40.10;;;35.42;;
46282;SDS011;32017;43.700;11.820;2022-12-20T08:14:31;43.85;;;37.17;;
46282;SDS011;32017;43.700;11.820;2022-12-20T08:16:51;47.17;;;38.92;;
46282;SDS011;32017;43.700;11.820;2022-12-20T08:19:11;44.30;;;39.28;;
46282;SDS011;32017;43.700;11.820;2022-12-20T08:21:31;46.10;;;36.92;;
46282;SDS011;32017;43.700;11.820;2022-12-20T08:23:51;52.70;;;39.47;;
46282;SDS011;32017;43.700;11.820;2022-12-20T08:26:11;42.08;;;33.50;;
46282;SDS011;32017;43.700;11.820;2022-12-20T08:28:31;27.98;;;25.23;;
46282;SDS011;32017;43.700;11.820;2022-12-20T08:30:51;32.17;;;28.88;;
46282;SDS011;32017;43.700;11.820;2022-12-20T08:33:11;36.92;;;30.38;;
46282;SDS011;32017;43.700;11.820;2022-12-20T08:35:32;36.40;;;32.50;;
46282;SDS011;32017;43.700;11.820;2022-12-20T08:37:52;34.92;;;30.80;;
46282;SDS011;32017;43.700;11.820;2022-12-20T08:40:12;35.22;;;30.88;;
46282;SDS011;32017;43.700;11.820;2022-12-20T08:42:32;35.38;;;30.60;;
46282;SDS011;32017;43.700;11.820;2022-12-20T08:44:51;37.65;;;30.42;;
46282;SDS011;32017;43.700;11.820;2022-12-20T08:47:11;35.42;;;29.35;;
46282;SDS011;32017;43.700;11.820;2022-12-20T08:49:31;34.55;;;27.58;;
46282;SDS011;32017;43.700;11.820;2022-12-20T08:51:51;31.52;;;28.35;;
46282;SDS011;32017;43.700;11.820;2022-12-20T08:54:11;35.45;;;31.33;;
46282;SDS011;32017;43.700;11.820;2022-12-20T08:56:31;38.17;;;31.10;;
46282;SDS011;32017;43.700;11.820;2022-12-20T08:58:51;39.88;;;31.42;;
46282;SDS011;32017;43.700;11.820;2022-12-20T09:01:11;40.83;;;34.85;;
46282;SDS011;32017;43.700;11.820;2022-12-20T09:03:34;35.03;;;31.25;;
46282;SDS011;32017;43.700;11.820;2022-12-20T09:05:55;30.27;;;26.92;;
46282;SDS011;32017;43.700;11.820;2022-12-20T09:08:16;29.17;;;26.23;;
46282;SDS011;32017;43.700;11.820;2022-12-20T09:10:36;29.33;;;26.40;;
46282;SDS011;32017;43.700;11.820;2022-12-20T09:12:56;25.77;;;23.10;;
46282;SDS011;32017;43.700;11.820;2022-12-20T09:15:16;21.70;;;19.67;;
46282;SDS011;32017;43.700;11.820;2022-12-20T09:17:36;21.30;;;19.38;;
46282;SDS011;32017;43.700;11.820;2022-12-20T09:19:55;20.88;;;18.92;;
46282;SDS011;32017;43.700;11.820;2022-12-20T09:22:15;18.80;;;17.13;;
46282;SDS011;32017;43.700;11.820;2022-12-20T09:24:36;21.50;;;19.90;;
46282;SDS011;32017;43.700;11.820;2022-12-20T09:26:56;24.13;;;21.90;;
46282;SDS011;32017;43.700;11.820;2022-12-20T09:29:15;27.67;;;25.13;;
46282;SDS011;32017;43.700;11.820;2022-12-20T09:31:45;25.67;;;23.02;;
46282;SDS011;32017;43.700;11.820;2022-12-20T09:34:07;26.83;;;24.60;;
46282;SDS011;32017;43.700;11.820;2022-12-20T09:36:28;29.17;;;26.08;;
46282;SDS011;32017;43.700;11.820;2022-12-20T09:38:48;31.98;;;27.50;;
46282;SDS011;32017;43.700;11.820;2022-12-20T09:41:32;34.95;;;28.05;;
46282;SDS011;32017;43.700;11.820;2022-12-20T09:43:56;35.60;;;31.92;;
46282;SDS011;32017;43.700;11.820;2022-12-20T09:46:19;29.80;;;26.88;;
46282;SDS011;32017;43.700;11.820;2022-12-20T09:48:40;29.73;;;26.15;;
46282;SDS011;32017;43.700;11.820;2022-12-20T10:01:26;33.85;;;30.10;;
46282;SDS011;32017;43.700;11.820;2022-12-20T10:03:56;35.70;;;32.20;;
46282;SDS011;32017;43.700;11.820;2022-12-20T10:06:39;32.10;;;28.13;;
46282;SDS011;32017;43.700;11.820;2022-12-20T10:09:12;34.33;;;29.83;;
46282;SDS011;32017;43.700;11.820;2022-12-20T10:14:40;26.55;;;24.23;;
46282;SDS011;32017;43.700;11.820;2022-12-20T10:17:17;26.88;;;24.58;;
46282;SDS011;32017;43.700;11.820;2022-12-20T10:20:41;30.00;;;27.02;;
46282;SDS011;32017;43.700;11.820;2022-12-20T10:23:06;28.95;;;26.02;;
46282;SDS011;32017;43.700;11.820;2022-12-20T10:25:52;34.78;;;31.05;;
46282;SDS011;32017;43.700;11.820;2022-12-20T10:28:15;38.85;;;32.85;;
46282;SDS011;32017;43.700;11.820;2022-12-20T10:30:38;33.47;;;30.17;;
46282;SDS011;32017;43.700;11.820;2022-12-20T10:32:59;36.35;;;32.65;;
46282;SDS011;32017;43.700;11.820;2022-12-20T10:35:25;35.45;;;31.70;;
46282;SDS011;32017;43.700;11.820;2022-12-20T10:38:03;34.15;;;30.73;;
46282;SDS011;32017;43.700;11.820;2022-12-20T10:43:17;36.22;;;30.80;;
46282;SDS011;32017;43.700;11.820;2022-12-20T10:45:41;39.78;;;32.35;;
46282;SDS011;32017;43.700;11.820;2022-12-20T10:48:03;34.28;;;30.65;;
46282;SDS011;32017;43.700;11.820;2022-12-20T10:50:25;35.88;;;32.53;;
46282;SDS011;32017;43.700;11.820;2022-12-20T10:53:00;34.35;;;30.85;;
46282;SDS011;32017;43.700;11.820;2022-12-20T10:55:42;36.60;;;32.58;;
46282;SDS011;32017;43.700;11.820;2022-12-20T10:58:03;29.48;;;26.50;;
46282;SDS011;32017;43.700;11.820;2022-12-20T11:00:28;26.07;;;23.53;;
46282;SDS011;32017;43.700;11.820;2022-12-20T11:03:01;25.08;;;22.65;;
46282;SDS011;32017;43.700;11.820;2022-12-20T11:05:23;26.02;;;23.52;;
46282;SDS011;32017;43.700;11.820;2022-12-20T11:10:35;24.95;;;22.33;;
46282;SDS011;32017;43.700;11.820;2022-12-20T11:12:56;24.88;;;22.42;;
46282;SDS011;32017;43.700;11.820;2022-12-20T11:15:22;22.67;;;20.60;;
46282;SDS011;32017;43.700;11.820;2022-12-20T11:17:58;26.35;;;23.73;;
46282;SDS011;32017;43.700;11.820;2022-12-20T11:23:27;20.80;;;19.20;;
46282;SDS011;32017;43.700;11.820;2022-12-20T11:29:27;18.52;;;16.55;;
46282;SDS011;32017;43.700;11.820;2022-12-20T11:34:59;21.15;;;19.00;;
46282;SDS011;32017;43.700;11.820;2022-12-20T11:37:35;17.60;;;16.38;;
46282;SDS011;32017;43.700;11.820;2022-12-20T11:40:38;17.35;;;16.02;;
46282;SDS011;32017;43.700;11.820;2022-12-20T11:43:09;20.33;;;16.67;;
46282;SDS011;32017;43.700;11.820;2022-12-20T11:56:45;29.38;;;22.98;;
46282;SDS011;32017;43.700;11.820;2022-12-20T11:59:25;27.20;;;24.52;;
46282;SDS011;32017;43.700;11.820;2022-12-20T12:01:59;25.52;;;23.02;;
46282;SDS011;32017;43.700;11.820;2022-12-20T12:04:33;19.05;;;17.13;;
46282;SDS011;32017;43.700;11.820;2022-12-20T12:07:09;17.52;;;15.77;;
46282;SDS011;32017;43.700;11.820;2022-12-20T12:15:02;13.63;;;12.90;;
46282;SDS011;32017;43.700;11.820;2022-12-20T12:20:07;10.02;;;9.43;;
46282;SDS011;32017;43.700;11.820;2022-12-20T12:22:36;13.30;;;8.57;;
46282;SDS011;32017;43.700;11.820;2022-12-20T12:24:58;9.13;;;8.43;;
46282;SDS011;32017;43.700;11.820;2022-12-20T12:29:44;7.88;;;7.35;;
46282;SDS011;32017;43.700;11.820;2022-12-20T12:32:10;10.77;;;10.23;;
46282;SDS011;32017;43.700;11.820;2022-12-20T12:37:23;8.50;;;8.18;;
46282;SDS011;32017;43.700;11.820;2022-12-20T12:48:10;12.65;;;11.73;;
46282;SDS011;32017;43.700;11.820;2022-12-20T12:50:37;16.63;;;15.13;;
46282;SDS011;32017;43.700;11.820;2022-12-20T12:53:25;19.33;;;17.63;;
46282;SDS011;32017;43.700;11.820;2022-12-20T12:55:55;22.75;;;20.75;;
46282;SDS011;32017;43.700;11.820;2022-12-20T12:58:32;48.50;;;38.83;;
46282;SDS011;32017;43.700;11.820;2022-12-20T13:00:53;18.98;;;17.13;;
46282;SDS011;32017;43.700;11.820;2022-12-20T13:03:16;16.73;;;14.38;;
46282;SDS011;32017;43.700;11.820;2022-12-20T13:05:56;14.98;;;13.80;;
46282;SDS011;32017;43.700;11.820;2022-12-20T13:08:16;13.60;;;12.27;;
46282;SDS011;32017;43.700;11.820;2022-12-20T13:12:57;20.80;;;18.67;;
46282;SDS011;32017;43.700;11.820;2022-12-20T13:18:40;16.02;;;14.73;;
46282;SDS011;32017;43.700;11.820;2022-12-20T13:20:29;14.55;;;13.13;;
46282;SDS011;32017;43.700;11.820;2022-12-20T13:25:27;11.70;;;10.52;;
46282;SDS011;32017;43.700;11.820;2022-12-20T13:27:48;13.90;;;12.55;;
46282;SDS011;32017;43.700;11.820;2022-12-20T13:37:51;18.73;;;16.13;;
46282;SDS011;32017;43.700;11.820;2022-12-20T13:40:35;15.00;;;13.82;;
46282;SDS011;32017;43.700;11.820;2022-12-20T13:43:01;19.92;;;18.02;;
46282;SDS011;32017;43.700;11.820;2022-12-20T13:45:26;21.70;;;19.60;;
46282;SDS011;32017;43.700;11.820;2022-12-20T13:47:57;17.30;;;14.55;;
46282;SDS011;32017;43.700;11.820;2022-12-20T13:50:39;10.52;;;9.68;;
46282;SDS011;32017;43.700;11.820;2022-12-20T13:53:13;10.52;;;9.93;;
46282;SDS011;32017;43.700;11.820;2022-12-20T13:55:37;9.63;;;9.15;;
46282;SDS011;32017;43.700;11.820;2022-12-20T13:58:02;10.98;;;10.10;;
46282;SDS011;32017;43.700;11.820;2022-12-20T14:00:41;10.65;;;9.95;;
46282;SDS011;32017;43.700;11.820;2022-12-20T14:03:01;10.98;;;10.18;;
46282;SDS011;32017;43.700;11.820;2022-12-20T14:05:22;11.23;;;10.52;;
46282;SDS011;32017;43.700;11.820;2022-12-20T14:07:50;13.93;;;12.57;;
46282;SDS011;32017;43.700;11.820;2022-12-20T14:10:22;9.55;;;8.80;;
46282;SDS011;32017;43.700;11.820;2022-12-20T14:12:44;11.18;;;10.48;;
46282;SDS011;32017;43.700;11.820;2022-12-20T14:15:19;10.40;;;9.73;;
46282;SDS011;32017;43.700;11.820;2022-12-20T14:17:47;9.07;;;8.45;;
46282;SDS011;32017;43.700;11.820;2022-12-20T14:20:14;9.85;;;9.13;;
46282;SDS011;32017;43.700;11.820;2022-12-20T14:22:35;8.77;;;8.32;;
46282;SDS011;32017;43.700;11.820;2022-12-20T14:24:56;13.57;;;12.27;;
46282;SDS011;32017;43.700;11.820;2022-12-20T14:27:17;10.20;;;9.35;;
46282;SDS011;32017;43.700;11.820;2022-12-20T14:29:37;9.25;;;8.43;;
46282;SDS011;32017;43.700;11.820;2022-12-20T14:31:59;7.18;;;6.78;;
46282;SDS011;32017;43.700;11.820;2022-12-20T14:34:20;7.93;;;7.55;;
46282;SDS011;32017;43.700;11.820;2022-12-20T14:36:49;9.85;;;9.23;;
46282;SDS011;32017;43.700;11.820;2022-12-20T14:39:31;10.98;;;10.13;;
46282;SDS011;32017;43.700;11.820;2022-12-20T14:41:55;10.60;;;9.90;;
46282;SDS011;32017;43.700;11.820;2022-12-20T14:44:28;10.45;;;9.43;;
46282;SDS011;32017;43.700;11.820;2022-12-20T14:46:53;10.52;;;9.70;;
46282;SDS011;32017;43.700;11.820;2022-12-20T14:49:26;10.48;;;9.68;;
46282;SDS011;32017;43.700;11.820;2022-12-20T14:51:51;10.70;;;9.85;;
46282;SDS011;32017;43.700;11.820;2022-12-20T14:54:24;9.13;;;8.45;;
46282;SDS011;32017;43.700;11.820;2022-12-20T14:57:09;12.68;;;9.98;;
46282;SDS011;32017;43.700;11.820;2022-12-20T14:59:38;14.13;;;12.93;;
46282;SDS011;32017;43.700;11.820;2022-12-20T15:01:58;11.02;;;10.30;;
46282;SDS011;32017;43.700;11.820;2022-12-20T15:04:51;40.08;;;33.72;;
46282;SDS011;32017;43.700;11.820;2022-12-20T15:07:29;44.05;;;35.75;;
46282;SDS011;32017;43.700;11.820;2022-12-20T15:09:50;39.38;;;28.92;;
46282;SDS011;32017;43.700;11.820;2022-12-20T15:12:10;23.33;;;19.80;;
46282;SDS011;32017;43.700;11.820;2022-12-20T15:14:36;24.33;;;19.48;;
46282;SDS011;32017;43.700;11.820;2022-12-20T15:16:57;29.77;;;20.02;;
46282;SDS011;32017;43.700;11.820;2022-12-20T15:19:17;22.60;;;20.33;;
46282;SDS011;32017;43.700;11.820;2022-12-20T15:21:38;21.10;;;18.75;;
46282;SDS011;32017;43.700;11.820;2022-12-20T15:24:01;25.27;;;19.63;;
46282;SDS011;32017;43.700;11.820;2022-12-20T15:26:26;23.77;;;21.58;;
46282;SDS011;32017;43.700;11.820;2022-12-20T15:28:46;22.38;;;20.08;;
46282;SDS011;32017;43.700;11.820;2022-12-20T15:31:09;31.35;;;28.25;;
46282;SDS011;32017;43.700;11.820;2022-12-20T15:33:30;39.30;;;31.05;;
46282;SDS011;32017;43.700;11.820;2022-12-20T15:35:52;29.33;;;25.70;;